sensor_id;sensor_type;location;lat;lon;timestamp;temperature;humidity
43227;DHT22;28839;52.404;9.808;2022-07-04T00:01:47;17.60;99.90
43227;DHT22;28839;52.404;9.808;2022-07-04T00:08:42;17.50;99.90
43227;DHT22;28839;52.404;9.808;2022-07-04T00:15:36;17.50;99.90
43227;DHT22;28839;52.404;9.808;2022-07-04T00:22:30;17.30;99.90
43227;DHT22;28839;52.404;9.808;2022-07-04T00:29:26;17.10;99.90
43227;DHT22;28839;52.404;9.808;2022-07-04T00:36:20;17.10;99.90
43227;DHT22;28839;52.404;9.808;2022-07-04T00:43:21;16.90;99.90
43227;DHT22;28839;52.404;9.808;2022-07-04T00:50:16;16.90;99.90
43227;DHT22;28839;52.404;9.808;2022-07-04T00:57:12;16.70;99.90
43227;DHT22;28839;52.404;9.808;2022-07-04T01:04:06;16.60;99.90
43227;DHT22;28839;52.404;9.808;2022-07-04T01:11:01;16.50;99.90
43227;DHT22;28839;52.404;9.808;2022-07-04T01:17:55;16.60;99.90
43227;DHT22;28839;52.404;9.808;2022-07-04T01:24:50;16.50;99.90
43227;DHT22;28839;52.404;9.808;2022-07-04T01:31:44;16.50;99.90
43227;DHT22;28839;52.404;9.808;2022-07-04T01:38:38;16.40;99.90
43227;DHT22;28839;52.404;9.808;2022-07-04T01:45:33;16.30;99.90
43227;DHT22;28839;52.404;9.808;2022-07-04T01:52:32;16.20;99.90
43227;DHT22;28839;52.404;9.808;2022-07-04T01:59:26;16.20;99.90
43227;DHT22;28839;52.404;9.808;2022-07-04T02:06:35;16.00;99.90
43227;DHT22;28839;52.404;9.808;2022-07-04T02:13:29;15.80;99.90
43227;DHT22;28839;52.404;9.808;2022-07-04T02:20:23;15.80;99.90
43227;DHT22;28839;52.404;9.808;2022-07-04T02:27:18;15.60;99.90
43227;DHT22;28839;52.404;9.808;2022-07-04T02:34:12;15.50;99.90
43227;DHT22;28839;52.404;9.808;2022-07-04T02:41:06;15.40;99.90
43227;DHT22;28839;52.404;9.808;2022-07-04T02:48:02;15.40;99.90
43227;DHT22;28839;52.404;9.808;2022-07-04T02:54:56;15.30;99.90
43227;DHT22;28839;52.404;9.808;2022-07-04T03:01:50;15.20;99.90
43227;DHT22;28839;52.404;9.808;2022-07-04T03:08:45;15.40;99.90
43227;DHT22;28839;52.404;9.808;2022-07-04T03:15:40;15.20;99.90
43227;DHT22;28839;52.404;9.808;2022-07-04T03:22:34;15.20;99.90
43227;DHT22;28839;52.404;9.808;2022-07-04T03:29:29;15.10;99.90
43227;DHT22;28839;52.404;9.808;2022-07-04T03:36:23;15.10;99.90
43227;DHT22;28839;52.404;9.808;2022-07-04T03:43:17;15.10;99.90
43227;DHT22;28839;52.404;9.808;2022-07-04T03:50:12;15.10;99.90
43227;DHT22;28839;52.404;9.808;2022-07-04T03:57:06;15.30;99.90
43227;DHT22;28839;52.404;9.808;2022-07-04T04:04:00;15.30;99.90
43227;DHT22;28839;52.404;9.808;2022-07-04T04:11:13;15.30;99.90
43227;DHT22;28839;52.404;9.808;2022-07-04T04:18:07;15.50;99.90
43227;DHT22;28839;52.404;9.808;2022-07-04T04:25:01;15.60;99.90
43227;DHT22;28839;52.404;9.808;2022-07-04T04:31:56;15.70;99.90
43227;DHT22;28839;52.404;9.808;2022-07-04T04:38:50;16.00;99.90
43227;DHT22;28839;52.404;9.808;2022-07-04T04:45:44;16.20;99.90
43227;DHT22;28839;52.404;9.808;2022-07-04T04:52:39;16.20;99.90
43227;DHT22;28839;52.404;9.808;2022-07-04T04:59:33;16.30;99.90
43227;DHT22;28839;52.404;9.808;2022-07-04T05:06:27;16.50;99.90
43227;DHT22;28839;52.404;9.808;2022-07-04T05:13:22;16.60;99.90
43227;DHT22;28839;52.404;9.808;2022-07-04T05:20:16;16.90;99.90
43227;DHT22;28839;52.404;9.808;2022-07-04T05:27:10;17.30;99.90
43227;DHT22;28839;52.404;9.808;2022-07-04T05:34:05;17.80;99.90
43227;DHT22;28839;52.404;9.808;2022-07-04T05:40:59;18.50;99.90
43227;DHT22;28839;52.404;9.808;2022-07-04T05:47:54;18.70;99.90
43227;DHT22;28839;52.404;9.808;2022-07-04T05:54:49;19.40;99.90
43227;DHT22;28839;52.404;9.808;2022-07-04T06:01:43;19.30;99.90
43227;DHT22;28839;52.404;9.808;2022-07-04T06:08:37;19.50;99.90
43227;DHT22;28839;52.404;9.808;2022-07-04T06:15:32;19.40;99.90
43227;DHT22;28839;52.404;9.808;2022-07-04T06:22:26;19.60;99.90
43227;DHT22;28839;52.404;9.808;2022-07-04T06:29:20;19.50;99.90
43227;DHT22;28839;52.404;9.808;2022-07-04T06:36:15;19.70;99.90
43227;DHT22;28839;52.404;9.808;2022-07-04T06:43:09;20.80;99.90
43227;DHT22;28839;52.404;9.808;2022-07-04T06:50:03;21.40;99.90
43227;DHT22;28839;52.404;9.808;2022-07-04T06:56:59;21.20;99.90
43227;DHT22;28839;52.404;9.808;2022-07-04T07:03:53;21.40;99.90
43227;DHT22;28839;52.404;9.808;2022-07-04T07:10:47;20.80;99.90
43227;DHT22;28839;52.404;9.808;2022-07-04T07:17:42;22.80;99.90
43227;DHT22;28839;52.404;9.808;2022-07-04T07:24:36;23.00;99.90
43227;DHT22;28839;52.404;9.808;2022-07-04T07:31:29;22.20;99.90
43227;DHT22;28839;52.404;9.808;2022-07-04T07:38:25;22.10;99.90
43227;DHT22;28839;52.404;9.808;2022-07-04T07:45:18;23.50;99.90
43227;DHT22;28839;52.404;9.808;2022-07-04T07:52:12;21.30;99.90
43227;DHT22;28839;52.404;9.808;2022-07-04T07:59:07;22.00;99.90
43227;DHT22;28839;52.404;9.808;2022-07-04T08:06:01;23.60;99.90
43227;DHT22;28839;52.404;9.808;2022-07-04T08:19:52;23.40;99.90
43227;DHT22;28839;52.404;9.808;2022-07-04T08:26:46;24.60;99.90
43227;DHT22;28839;52.404;9.808;2022-07-04T08:33:40;23.00;99.90
43227;DHT22;28839;52.404;9.808;2022-07-04T08:40:36;23.70;99.90
43227;DHT22;28839;52.404;9.808;2022-07-04T08:47:32;23.90;99.90
43227;DHT22;28839;52.404;9.808;2022-07-04T08:54:27;24.00;99.90
43227;DHT22;28839;52.404;9.808;2022-07-04T09:01:42;22.80;99.90
43227;DHT22;28839;52.404;9.808;2022-07-04T09:08:37;23.60;99.90
43227;DHT22;28839;52.404;9.808;2022-07-04T09:15:31;24.80;99.90
43227;DHT22;28839;52.404;9.808;2022-07-04T09:22:27;25.50;99.20
43227;DHT22;28839;52.404;9.808;2022-07-04T09:29:20;24.40;98.80
43227;DHT22;28839;52.404;9.808;2022-07-04T09:36:16;24.30;98.40
43227;DHT22;28839;52.404;9.808;2022-07-04T09:43:12;24.90;99.10
43227;DHT22;28839;52.404;9.808;2022-07-04T09:50:08;23.70;99.90
43227;DHT22;28839;52.404;9.808;2022-07-04T09:57:03;23.30;99.90
43227;DHT22;28839;52.404;9.808;2022-07-04T10:03:59;23.50;99.90
43227;DHT22;28839;52.404;9.808;2022-07-04T10:10:56;24.50;99.60
43227;DHT22;28839;52.404;9.808;2022-07-04T10:17:51;24.20;98.30
43227;DHT22;28839;52.404;9.808;2022-07-04T10:24:46;24.20;99.50
43227;DHT22;28839;52.404;9.808;2022-07-04T10:31:40;24.30;98.40
43227;DHT22;28839;52.404;9.808;2022-07-04T10:38:45;25.20;97.20
43227;DHT22;28839;52.404;9.808;2022-07-04T10:45:41;25.30;96.80
43227;DHT22;28839;52.404;9.808;2022-07-04T10:52:35;25.30;97.70
43227;DHT22;28839;52.404;9.808;2022-07-04T10:59:29;24.30;96.70
43227;DHT22;28839;52.404;9.808;2022-07-04T11:06:52;24.70;97.70
43227;DHT22;28839;52.404;9.808;2022-07-04T11:13:47;25.20;96.10
43227;DHT22;28839;52.404;9.808;2022-07-04T11:20:43;25.60;99.90
43227;DHT22;28839;52.404;9.808;2022-07-04T11:27:41;25.30;97.70
43227;DHT22;28839;52.404;9.808;2022-07-04T11:34:35;25.50;96.40
43227;DHT22;28839;52.404;9.808;2022-07-04T11:41:30;24.80;96.00
43227;DHT22;28839;52.404;9.808;2022-07-04T11:48:43;24.40;96.50
43227;DHT22;28839;52.404;9.808;2022-07-04T11:55:37;25.40;96.60
43227;DHT22;28839;52.404;9.808;2022-07-04T12:02:32;25.20;98.80
43227;DHT22;28839;52.404;9.808;2022-07-04T12:16:21;25.00;95.70
43227;DHT22;28839;52.404;9.808;2022-07-04T12:23:16;24.50;96.10
43227;DHT22;28839;52.404;9.808;2022-07-04T12:30:12;24.00;97.10
43227;DHT22;28839;52.404;9.808;2022-07-04T12:37:09;24.60;96.30
43227;DHT22;28839;52.404;9.808;2022-07-04T12:44:03;24.20;96.90
43227;DHT22;28839;52.404;9.808;2022-07-04T12:51:11;24.00;98.00
43227;DHT22;28839;52.404;9.808;2022-07-04T12:58:05;24.00;98.30
43227;DHT22;28839;52.404;9.808;2022-07-04T13:04:59;24.30;97.90
43227;DHT22;28839;52.404;9.808;2022-07-04T13:11:54;23.80;97.60
43227;DHT22;28839;52.404;9.808;2022-07-04T13:19:05;24.50;97.80
43227;DHT22;28839;52.404;9.808;2022-07-04T13:32:54;24.30;96.50
43227;DHT22;28839;52.404;9.808;2022-07-04T13:39:48;24.30;95.30
43227;DHT22;28839;52.404;9.808;2022-07-04T13:46:42;23.80;97.00
43227;DHT22;28839;52.404;9.808;2022-07-04T13:53:37;23.80;97.30
43227;DHT22;28839;52.404;9.808;2022-07-04T14:00:32;24.10;99.90
43227;DHT22;28839;52.404;9.808;2022-07-04T14:07:26;24.40;99.90
43227;DHT22;28839;52.404;9.808;2022-07-04T14:14:22;24.80;96.30
43227;DHT22;28839;52.404;9.808;2022-07-04T14:21:15;24.80;97.30
43227;DHT22;28839;52.404;9.808;2022-07-04T14:28:10;25.10;95.20
43227;DHT22;28839;52.404;9.808;2022-07-04T14:35:06;25.00;93.30
43227;DHT22;28839;52.404;9.808;2022-07-04T14:42:00;25.10;94.40
43227;DHT22;28839;52.404;9.808;2022-07-04T14:48:56;25.30;94.80
43227;DHT22;28839;52.404;9.808;2022-07-04T14:55:51;25.30;93.70
43227;DHT22;28839;52.404;9.808;2022-07-04T15:02:45;25.20;93.90
43227;DHT22;28839;52.404;9.808;2022-07-04T15:09:39;25.40;93.80
43227;DHT22;28839;52.404;9.808;2022-07-04T15:16:35;25.80;93.10
43227;DHT22;28839;52.404;9.808;2022-07-04T15:23:28;25.50;92.50
43227;DHT22;28839;52.404;9.808;2022-07-04T15:30:40;25.20;93.20
43227;DHT22;28839;52.404;9.808;2022-07-04T15:37:35;24.90;95.30
43227;DHT22;28839;52.404;9.808;2022-07-04T15:51:23;25.30;99.90
43227;DHT22;28839;52.404;9.808;2022-07-04T15:58:18;25.00;96.30
43227;DHT22;28839;52.404;9.808;2022-07-04T16:25:56;24.60;99.90
43227;DHT22;28839;52.404;9.808;2022-07-04T16:39:46;25.50;99.90
43227;DHT22;28839;52.404;9.808;2022-07-04T17:14:18;24.40;94.80
43227;DHT22;28839;52.404;9.808;2022-07-04T17:21:13;23.90;95.70
43227;DHT22;28839;52.404;9.808;2022-07-04T17:28:07;24.00;99.90
43227;DHT22;28839;52.404;9.808;2022-07-04T17:35:01;24.30;99.00
43227;DHT22;28839;52.404;9.808;2022-07-04T17:41:56;23.90;97.80
43227;DHT22;28839;52.404;9.808;2022-07-04T17:55:44;23.70;99.90
43227;DHT22;28839;52.404;9.808;2022-07-04T18:02:41;23.90;99.90
43227;DHT22;28839;52.404;9.808;2022-07-04T18:09:35;23.60;97.30
43227;DHT22;28839;52.404;9.808;2022-07-04T18:16:29;23.50;98.90
43227;DHT22;28839;52.404;9.808;2022-07-04T18:23:24;23.30;98.20
43227;DHT22;28839;52.404;9.808;2022-07-04T18:44:08;22.80;99.10
43227;DHT22;28839;52.404;9.808;2022-07-04T18:51:03;22.70;99.90
43227;DHT22;28839;52.404;9.808;2022-07-04T18:57:57;22.50;99.90
43227;DHT22;28839;52.404;9.808;2022-07-04T19:04:52;22.40;99.90
43227;DHT22;28839;52.404;9.808;2022-07-04T19:11:46;22.20;99.90
43227;DHT22;28839;52.404;9.808;2022-07-04T19:18:40;22.10;99.90
43227;DHT22;28839;52.404;9.808;2022-07-04T19:25:38;21.90;99.90
43227;DHT22;28839;52.404;9.808;2022-07-04T19:32:33;21.70;99.90
43227;DHT22;28839;52.404;9.808;2022-07-04T19:39:27;21.80;99.90
43227;DHT22;28839;52.404;9.808;2022-07-04T19:46:23;21.60;99.90
43227;DHT22;28839;52.404;9.808;2022-07-04T19:53:17;21.50;99.90
43227;DHT22;28839;52.404;9.808;2022-07-04T20:00:13;21.40;99.90
43227;DHT22;28839;52.404;9.808;2022-07-04T20:07:11;21.50;99.90
43227;DHT22;28839;52.404;9.808;2022-07-04T20:14:05;21.30;99.90
43227;DHT22;28839;52.404;9.808;2022-07-04T20:20:59;21.10;99.90
43227;DHT22;28839;52.404;9.808;2022-07-04T20:27:54;20.90;99.90
43227;DHT22;28839;52.404;9.808;2022-07-04T20:34:55;20.60;99.90
43227;DHT22;28839;52.404;9.808;2022-07-04T20:41:50;20.40;99.90
43227;DHT22;28839;52.404;9.808;2022-07-04T20:48:45;20.20;99.90
43227;DHT22;28839;52.404;9.808;2022-07-04T20:55:39;20.50;99.90
43227;DHT22;28839;52.404;9.808;2022-07-04T21:02:33;20.10;99.90
43227;DHT22;28839;52.404;9.808;2022-07-04T21:09:28;20.00;99.90
43227;DHT22;28839;52.404;9.808;2022-07-04T21:16:22;19.70;99.90
43227;DHT22;28839;52.404;9.808;2022-07-04T21:23:18;19.50;99.90
43227;DHT22;28839;52.404;9.808;2022-07-04T21:30:14;19.30;99.90
43227;DHT22;28839;52.404;9.808;2022-07-04T21:37:08;19.20;99.90
43227;DHT22;28839;52.404;9.808;2022-07-04T21:44:01;19.00;99.90
43227;DHT22;28839;52.404;9.808;2022-07-04T21:50:57;18.80;99.90
43227;DHT22;28839;52.404;9.808;2022-07-04T21:57:51;18.80;99.90
43227;DHT22;28839;52.404;9.808;2022-07-04T22:04:45;18.60;99.90
43227;DHT22;28839;52.404;9.808;2022-07-04T22:11:40;18.40;99.90
43227;DHT22;28839;52.404;9.808;2022-07-04T22:18:34;18.20;99.90
43227;DHT22;28839;52.404;9.808;2022-07-04T22:25:28;18.20;99.90
43227;DHT22;28839;52.404;9.808;2022-07-04T22:32:23;18.00;99.90
43227;DHT22;28839;52.404;9.808;2022-07-04T22:39:17;17.70;99.90
43227;DHT22;28839;52.404;9.808;2022-07-04T22:46:11;17.70;99.90
43227;DHT22;28839;52.404;9.808;2022-07-04T22:53:06;17.60;99.90
43227;DHT22;28839;52.404;9.808;2022-07-04T23:00:20;17.50;99.90
43227;DHT22;28839;52.404;9.808;2022-07-04T23:07:14;17.40;99.90
43227;DHT22;28839;52.404;9.808;2022-07-04T23:14:09;17.30;99.90
43227;DHT22;28839;52.404;9.808;2022-07-04T23:21:03;17.20;99.90
43227;DHT22;28839;52.404;9.808;2022-07-04T23:27:57;17.10;99.90
43227;DHT22;28839;52.404;9.808;2022-07-04T23:34:52;16.80;99.90
43227;DHT22;28839;52.404;9.808;2022-07-04T23:41:46;16.70;99.90
43227;DHT22;28839;52.404;9.808;2022-07-04T23:48:40;16.60;99.90
43227;DHT22;28839;52.404;9.808;2022-07-04T23:55:35;16.40;99.90
